Live aus Altenrhein
LIVE
LSZR 270620Z AUTO 29008KT 9000 -RA OVC013 04/02 Q1013 REDZ

People´s Info Center:

Öffnungszeiten Mo-Fr, 8-18 Uhr

 

info@peoples.ch

 
Aus Österreich:

T: +43 (0)5572 203 610

 

Aus CH / LI / DE:

T: +41 (0)71 858 51 60